Time;durP1;ratioP1;P1;durP2;ratioP2;P2;SDS_P1;SDS_P2;PMS_P1;PMS_P2;Temp;Humidity;BMP_temperature;BMP_pressure;BME280_temperature;BME280_humidity;BME280_pressure;Samples;Min_cycle;Max_cycle;Signal;HPM_P1;HPM_P2
2021/08/08 00:01:56;;;;;;;30.08;14.40;;;;;;;;;;5046269;28;20083;-73
2021/08/08 00:04:23;;;;;;;24.13;13.13;;;;;;;;;;5037117;28;20119;-73
2021/08/08 00:06:52;;;;;;;19.77;13.10;;;;;;;;;;5027916;28;20045;-72
2021/08/08 00:09:19;;;;;;;27.83;16.10;;;;;;;;;;5062464;28;20449;-73
2021/08/08 00:11:50;;;;;;;24.63;14.68;;;;;;;;;;5063213;28;20056;-74
2021/08/08 00:14:17;;;;;;;31.73;15.45;;;;;;;;;;5057487;28;20041;-74
2021/08/08 00:16:44;;;;;;;26.02;15.45;;;;;;;;;;5063424;28;20087;-76
2021/08/08 00:19:11;;;;;;;32.13;18.83;;;;;;;;;;5061844;28;20048;-72
2021/08/08 00:21:38;;;;;;;30.33;17.25;;;;;;;;;;5059176;28;20414;-73
2021/08/08 00:24:06;;;;;;;33.45;16.17;;;;;;;;;;5052709;28;20112;-74
2021/08/08 00:26:33;;;;;;;25.83;15.13;;;;;;;;;;5063648;28;20487;-72
2021/08/08 00:29:01;;;;;;;24.00;15.35;;;;;;;;;;5061943;28;20052;-71
2021/08/08 00:31:28;;;;;;;27.13;14.98;;;;;;;;;;5058650;28;20068;-73
2021/08/08 00:34:06;;;;;;;26.50;15.20;;;;;;;;;;5033776;28;20048;-75
2021/08/08 00:36:35;;;;;;;29.73;15.93;;;;;;;;;;5061400;28;20072;-75
2021/08/08 00:39:04;;;;;;;28.30;15.18;;;;;;;;;;5062213;28;20082;-74
2021/08/08 00:41:31;;;;;;;25.92;15.90;;;;;;;;;;5043816;28;20040;-75
2021/08/08 00:45:44;;;;;;;26.55;15.95;;;;;;;;;;5053392;27;20408;-76
2021/08/08 00:48:12;;;;;;;25.83;17.05;;;;;;;;;;5048435;28;20048;-75
2021/08/08 00:50:42;;;;;;;23.25;17.00;;;;;;;;;;5055925;28;20487;-78
2021/08/08 00:53:09;;;;;;;25.70;16.25;;;;;;;;;;5037643;28;20117;-74
2021/08/08 00:55:37;;;;;;;29.77;16.00;;;;;;;;;;5033752;28;20041;-74
2021/08/08 00:58:04;;;;;;;23.60;16.00;;;;;;;;;;5035492;28;20114;-76
2021/08/08 01:00:33;;;;;;;29.55;17.67;;;;;;;;;;5037131;28;20503;-76
2021/08/08 01:03:08;;;;;;;35.65;23.13;;;;;;;;;;5055749;28;20037;-75
2021/08/08 01:05:42;;;;;;;35.50;20.70;;;;;;;;;;5054417;28;20106;-75
2021/08/08 01:08:14;;;;;;;32.28;19.77;;;;;;;;;;5052751;28;20037;-75
2021/08/08 01:10:42;;;;;;;27.50;18.48;;;;;;;;;;5032102;28;20036;-78
2021/08/08 01:13:11;;;;;;;30.50;18.55;;;;;;;;;;5048118;28;20526;-77
2021/08/08 01:15:41;;;;;;;27.10;18.20;;;;;;;;;;5033276;28;20114;-76
2021/08/08 01:18:12;;;;;;;33.83;20.52;;;;;;;;;;5052745;28;20079;-75
2021/08/08 01:20:44;;;;;;;31.13;19.35;;;;;;;;;;5051763;28;20041;-76
2021/08/08 01:23:14;;;;;;;33.35;21.05;;;;;;;;;;5052206;28;20044;-78
2021/08/08 01:25:45;;;;;;;39.83;21.63;;;;;;;;;;5051051;28;20051;-75
2021/08/08 01:28:13;;;;;;;38.80;22.42;;;;;;;;;;5037846;28;20040;-75
2021/08/08 01:30:40;;;;;;;38.45;23.38;;;;;;;;;;5036256;28;20090;-81
2021/08/08 01:33:10;;;;;;;31.38;19.95;;;;;;;;;;5035544;28;20040;-75
2021/08/08 01:35:37;;;;;;;32.13;19.67;;;;;;;;;;5003087;28;20052;-78
2021/08/08 01:38:07;;;;;;;31.02;19.40;;;;;;;;;;5041720;28;20045;-77
2021/08/08 01:40:47;;;;;;;34.65;18.98;;;;;;;;;;5035337;28;20040;-78
2021/08/08 01:43:22;;;;;;;28.92;17.70;;;;;;;;;;5044495;28;20040;-77
2021/08/08 01:45:50;;;;;;;30.80;17.45;;;;;;;;;;5028319;28;20051;-77
2021/08/08 01:48:20;;;;;;;29.95;18.27;;;;;;;;;;5025003;28;20075;-77
2021/08/08 01:50:49;;;;;;;29.83;17.55;;;;;;;;;;5049817;28;20124;-77
2021/08/08 01:53:16;;;;;;;27.33;16.60;;;;;;;;;;5036371;28;20182;-77
2021/08/08 01:55:44;;;;;;;27.02;16.02;;;;;;;;;;5047124;28;20045;-79
2021/08/08 01:58:11;;;;;;;28.58;16.80;;;;;;;;;;5037235;28;20499;-77
2021/08/08 02:00:39;;;;;;;26.15;17.67;;;;;;;;;;5057279;28;20040;-75
2021/08/08 02:03:09;;;;;;;26.40;15.82;;;;;;;;;;5035237;28;20060;-75
2021/08/08 02:05:36;;;;;;;30.30;16.83;;;;;;;;;;5024850;28;20080;-75
2021/08/08 02:08:04;;;;;;;26.85;16.30;;;;;;;;;;5017483;28;20036;-75
2021/08/08 02:10:34;;;;;;;27.02;17.73;;;;;;;;;;5037541;28;20048;-76
2021/08/08 02:13:02;;;;;;;27.13;15.65;;;;;;;;;;5018914;28;20127;-75
2021/08/08 02:15:29;;;;;;;27.40;17.63;;;;;;;;;;5039880;28;20032;-75
2021/08/08 02:17:56;;;;;;;31.02;18.13;;;;;;;;;;5041298;28;20041;-76
2021/08/08 02:20:23;;;;;;;23.23;17.70;;;;;;;;;;5024140;28;20047;-74
2021/08/08 02:22:50;;;;;;;28.88;20.05;;;;;;;;;;5044704;28;20041;-75
2021/08/08 02:25:17;;;;;;;26.77;20.70;;;;;;;;;;5044449;28;20072;-75
2021/08/08 02:27:44;;;;;;;29.67;22.90;;;;;;;;;;5043860;28;20419;-74
2021/08/08 02:30:12;;;;;;;36.53;25.70;;;;;;;;;;5044203;28;20511;-74
2021/08/08 02:32:39;;;;;;;34.55;24.35;;;;;;;;;;5044077;28;20469;-74
2021/08/08 02:35:08;;;;;;;34.58;26.23;;;;;;;;;;5042240;28;20423;-77
2021/08/08 02:37:35;;;;;;;36.13;26.08;;;;;;;;;;5014189;28;20564;-76
2021/08/08 02:40:03;;;;;;;34.80;26.05;;;;;;;;;;5042589;28;20488;-78
2021/08/08 02:42:31;;;;;;;38.80;26.45;;;;;;;;;;5040333;28;20084;-74
2021/08/08 02:44:59;;;;;;;38.78;25.92;;;;;;;;;;5017422;28;20469;-74
2021/08/08 02:47:29;;;;;;;35.67;26.85;;;;;;;;;;5044164;28;20466;-74
2021/08/08 02:49:57;;;;;;;37.95;28.63;;;;;;;;;;5043671;28;20049;-74
2021/08/08 02:52:27;;;;;;;39.55;28.33;;;;;;;;;;5035871;28;20482;-73
2021/08/08 02:54:55;;;;;;;39.50;29.42;;;;;;;;;;5041403;28;20045;-73
2021/08/08 02:57:22;;;;;;;39.05;29.60;;;;;;;;;;5039738;28;20130;-75
2021/08/08 02:59:49;;;;;;;35.00;27.48;;;;;;;;;;5042272;28;20095;-74
2021/08/08 03:02:16;;;;;;;36.40;27.23;;;;;;;;;;5035033;28;20560;-75
2021/08/08 03:04:43;;;;;;;39.65;27.90;;;;;;;;;;5050975;28;20499;-76
2021/08/08 03:07:10;;;;;;;39.88;28.45;;;;;;;;;;5041317;28;20457;-74
2021/08/08 03:09:37;;;;;;;36.03;26.55;;;;;;;;;;5038538;28;20060;-74
2021/08/08 03:12:04;;;;;;;33.58;27.02;;;;;;;;;;5038063;28;20060;-75
2021/08/08 03:14:32;;;;;;;;;;;;;;;;;;5038274;28;20411;-74
2021/08/08 03:16:59;;;;;;;38.20;25.23;;;;;;;;;;5036168;28;19917;-75
2021/08/08 03:19:26;;;;;;;33.45;25.55;;;;;;;;;;5038225;28;20518;-76
2021/08/08 03:21:53;;;;;;;32.38;23.92;;;;;;;;;;5028442;28;20033;-77
2021/08/08 03:24:22;;;;;;;33.30;25.75;;;;;;;;;;5034332;28;20438;-78
2021/08/08 03:26:49;;;;;;;32.63;24.00;;;;;;;;;;5039768;28;20503;-74
2021/08/08 03:29:16;;;;;;;36.08;24.00;;;;;;;;;;5042701;28;20518;-74
2021/08/08 03:31:43;;;;;;;32.72;25.15;;;;;;;;;;5041973;28;20111;-78
2021/08/08 03:34:11;;;;;;;32.00;22.25;;;;;;;;;;5030982;28;20055;-73
2021/08/08 03:36:38;;;;;;;32.83;21.30;;;;;;;;;;5027980;28;20095;-74
2021/08/08 03:39:05;;;;;;;25.98;20.15;;;;;;;;;;5021914;28;20037;-75
2021/08/08 03:41:33;;;;;;;28.08;19.17;;;;;;;;;;5022154;28;20121;-75
2021/08/08 03:44:00;;;;;;;28.80;18.40;;;;;;;;;;5020231;28;20042;-75
2021/08/08 03:46:27;;;;;;;24.45;18.85;;;;;;;;;;5037314;28;20081;-74
2021/08/08 03:48:54;;;;;;;28.42;20.88;;;;;;;;;;5023333;28;20113;-75
2021/08/08 03:51:21;;;;;;;31.38;20.50;;;;;;;;;;5031702;28;20092;-74
2021/08/08 03:53:48;;;;;;;30.58;20.27;;;;;;;;;;5028697;28;20045;-73
2021/08/08 03:56:15;;;;;;;27.02;19.77;;;;;;;;;;5039761;28;20491;-74
2021/08/08 03:58:43;;;;;;;27.83;19.90;;;;;;;;;;5012244;28;20540;-74
2021/08/08 04:01:10;;;;;;;27.52;19.45;;;;;;;;;;5019896;28;20392;-74
2021/08/08 04:03:37;;;;;;;27.58;19.40;;;;;;;;;;5020706;28;20057;-75
2021/08/08 04:06:04;;;;;;;25.73;18.95;;;;;;;;;;5032042;28;20534;-77
2021/08/08 04:08:31;;;;;;;23.88;18.35;;;;;;;;;;5041794;28;20116;-76
2021/08/08 04:10:59;;;;;;;24.52;16.55;;;;;;;;;;5031955;28;20049;-75
2021/08/08 04:13:26;;;;;;;25.85;16.77;;;;;;;;;;5037949;28;20045;-77
2021/08/08 04:15:54;;;;;;;23.40;17.33;;;;;;;;;;5024076;28;20496;-76
2021/08/08 04:18:21;;;;;;;23.88;17.38;;;;;;;;;;5020222;28;20058;-75
2021/08/08 04:20:48;;;;;;;23.77;16.42;;;;;;;;;;5013434;28;20499;-75
2021/08/08 04:23:16;;;;;;;23.77;17.08;;;;;;;;;;5002474;28;20059;-74
2021/08/08 04:25:44;;;;;;;30.75;16.55;;;;;;;;;;5017257;28;20447;-78
2021/08/08 04:28:11;;;;;;;25.25;17.23;;;;;;;;;;5021648;28;20049;-74
2021/08/08 04:30:38;;;;;;;20.83;16.10;;;;;;;;;;5019101;28;20125;-74
2021/08/08 04:33:05;;;;;;;24.63;15.90;;;;;;;;;;5028682;28;20549;-74
2021/08/08 04:35:34;;;;;;;27.73;17.08;;;;;;;;;;5033652;28;20115;-73
2021/08/08 04:38:02;;;;;;;24.55;16.23;;;;;;;;;;5036244;28;20040;-77
2021/08/08 04:40:29;;;;;;;25.42;16.92;;;;;;;;;;5016555;28;20037;-73
2021/08/08 04:42:58;;;;;;;23.08;15.57;;;;;;;;;;5019571;28;20107;-72
2021/08/08 04:45:26;;;;;;;20.48;15.25;;;;;;;;;;5015217;28;20041;-73
2021/08/08 04:47:55;;;;;;;19.40;15.60;;;;;;;;;;5021077;28;20045;-74
2021/08/08 04:50:22;;;;;;;21.88;15.43;;;;;;;;;;5037668;28;20072;-73
2021/08/08 04:52:49;;;;;;;21.90;15.77;;;;;;;;;;5002113;28;20125;-73
2021/08/08 04:55:17;;;;;;;24.70;15.80;;;;;;;;;;5040404;28;20076;-75
2021/08/08 04:57:44;;;;;;;22.75;16.05;;;;;;;;;;5029577;28;20049;-73
2021/08/08 05:00:16;;;;;;;23.25;16.27;;;;;;;;;;5030346;28;20094;-73
2021/08/08 05:02:47;;;;;;;23.83;17.95;;;;;;;;;;5003727;28;20137;-75
2021/08/08 05:05:15;;;;;;;25.23;17.45;;;;;;;;;;5021844;28;20045;-74
2021/08/08 05:07:47;;;;;;;20.58;16.48;;;;;;;;;;5020540;28;20416;-73
2021/08/08 05:10:16;;;;;;;22.50;16.52;;;;;;;;;;5020292;28;20060;-73
2021/08/08 05:12:43;;;;;;;23.35;17.20;;;;;;;;;;5022624;28;20049;-75
2021/08/08 05:15:14;;;;;;;22.98;17.65;;;;;;;;;;5029555;28;20045;-74
2021/08/08 05:17:41;;;;;;;23.80;18.42;;;;;;;;;;5026982;28;20042;-74
2021/08/08 05:20:09;;;;;;;22.75;17.10;;;;;;;;;;5019654;28;20033;-75
2021/08/08 05:22:36;;;;;;;26.77;17.80;;;;;;;;;;5032628;28;20040;-74
2021/08/08 05:25:04;;;;;;;24.10;17.83;;;;;;;;;;5040735;28;20037;-74
2021/08/08 05:27:33;;;;;;;21.48;17.10;;;;;;;;;;5041452;28;20087;-79
2021/08/08 05:30:02;;;;;;;29.42;17.77;;;;;;;;;;5039473;28;20051;-75
2021/08/08 05:32:30;;;;;;;26.15;17.60;;;;;;;;;;5045421;28;20037;-79
2021/08/08 05:34:57;;;;;;;24.58;17.40;;;;;;;;;;5045388;28;20057;-76
2021/08/08 05:37:24;;;;;;;24.17;18.25;;;;;;;;;;5044979;28;20073;-77
2021/08/08 05:39:51;;;;;;;25.33;18.35;;;;;;;;;;5036332;28;20519;-77
2021/08/08 05:42:20;;;;;;;25.20;18.27;;;;;;;;;;5038944;28;20042;-76
2021/08/08 05:44:48;;;;;;;27.52;17.80;;;;;;;;;;5023033;28;20077;-77
2021/08/08 05:47:15;;;;;;;26.27;18.25;;;;;;;;;;5006327;28;20053;-75
2021/08/08 05:49:42;;;;;;;37.38;28.50;;;;;;;;;;5035439;28;20103;-76
2021/08/08 05:52:11;;;;;;;32.35;20.65;;;;;;;;;;5025989;28;20416;-79
2021/08/08 05:54:38;;;;;;;27.33;19.75;;;;;;;;;;5026414;28;20045;-77
2021/08/08 05:57:07;;;;;;;27.75;18.75;;;;;;;;;;5024661;28;20033;-75
2021/08/08 05:59:34;;;;;;;29.98;18.90;;;;;;;;;;5015254;28;20068;-76
2021/08/08 06:02:01;;;;;;;23.73;18.90;;;;;;;;;;5050688;28;20063;-76
2021/08/08 06:04:28;;;;;;;24.73;18.75;;;;;;;;;;5028335;28;20045;-75
2021/08/08 06:06:55;;;;;;;24.55;18.60;;;;;;;;;;5054622;28;20045;-75
2021/08/08 06:09:22;;;;;;;26.02;19.27;;;;;;;;;;5028462;28;20127;-76
2021/08/08 06:11:50;;;;;;;33.55;19.90;;;;;;;;;;5038296;28;20029;-75
2021/08/08 06:14:17;;;;;;;23.48;17.83;;;;;;;;;;5024286;28;20048;-75
2021/08/08 06:16:45;;;;;;;27.85;18.60;;;;;;;;;;5044758;28;20095;-75
2021/08/08 06:19:12;;;;;;;23.00;18.10;;;;;;;;;;5042959;28;20562;-75
2021/08/08 06:21:39;;;;;;;31.27;17.85;;;;;;;;;;5033007;28;20072;-76
2021/08/08 06:24:06;;;;;;;23.70;17.13;;;;;;;;;;5021467;28;20117;-74
2021/08/08 06:26:35;;;;;;;25.15;19.27;;;;;;;;;;5022024;28;20049;-75
2021/08/08 06:29:05;;;;;;;23.73;18.73;;;;;;;;;;5038698;28;20136;-73
2021/08/08 06:31:33;;;;;;;27.00;17.67;;;;;;;;;;5042334;28;20045;-74
2021/08/08 06:34:03;;;;;;;24.77;17.75;;;;;;;;;;5042381;28;20127;-73
2021/08/08 06:36:31;;;;;;;24.75;19.00;;;;;;;;;;5043970;28;20048;-77
2021/08/08 06:39:05;;;;;;;23.63;17.90;;;;;;;;;;5040465;28;20119;-75
2021/08/08 06:41:35;;;;;;;24.75;18.60;;;;;;;;;;5043593;28;20124;-76
2021/08/08 06:44:02;;;;;;;24.88;18.13;;;;;;;;;;5022689;28;20045;-76
2021/08/08 06:46:30;;;;;;;24.50;18.45;;;;;;;;;;5043072;28;20085;-77
2021/08/08 06:48:57;;;;;;;27.83;19.08;;;;;;;;;;5021526;28;20439;-74
2021/08/08 06:51:24;;;;;;;25.30;18.02;;;;;;;;;;5021078;28;20033;-76
2021/08/08 06:53:51;;;;;;;25.40;18.25;;;;;;;;;;5023966;28;20048;-76
2021/08/08 06:56:19;;;;;;;24.67;17.50;;;;;;;;;;5021611;28;20416;-76
2021/08/08 06:58:46;;;;;;;25.23;18.23;;;;;;;;;;5021475;28;20045;-75
2021/08/08 07:01:17;;;;;;;24.33;17.80;;;;;;;;;;5021792;28;20029;-75
2021/08/08 07:03:45;;;;;;;28.00;19.00;;;;;;;;;;5040675;28;20499;-76
2021/08/08 07:06:13;;;;;;;24.27;18.23;;;;;;;;;;5034516;28;20048;-75
2021/08/08 07:08:41;;;;;;;28.65;17.52;;;;;;;;;;5039952;28;20128;-75
2021/08/08 07:11:08;;;;;;;25.35;17.23;;;;;;;;;;5038611;28;20106;-74
2021/08/08 07:13:39;;;;;;;24.45;17.88;;;;;;;;;;5013756;28;20038;-75
2021/08/08 07:16:09;;;;;;;25.05;17.77;;;;;;;;;;5047051;28;20498;-74
2021/08/08 07:18:37;;;;;;;28.75;18.83;;;;;;;;;;5021476;28;20488;-74
2021/08/08 07:21:04;;;;;;;23.35;17.42;;;;;;;;;;5045405;28;20076;-74
2021/08/08 07:23:31;;;;;;;21.73;17.17;;;;;;;;;;5022891;28;20107;-74
2021/08/08 07:25:59;;;;;;;23.83;16.95;;;;;;;;;;5045435;28;20044;-74
2021/08/08 07:28:27;;;;;;;23.33;17.40;;;;;;;;;;5034944;28;20042;-74
2021/08/08 07:30:54;;;;;;;23.88;17.67;;;;;;;;;;5005537;28;20047;-74
2021/08/08 07:33:21;;;;;;;26.90;18.02;;;;;;;;;;5044825;28;20036;-78
2021/08/08 07:35:49;;;;;;;24.77;18.38;;;;;;;;;;5042953;28;20044;-75
2021/08/08 07:38:16;;;;;;;25.52;18.75;;;;;;;;;;5043228;28;20063;-75
2021/08/08 07:40:43;;;;;;;23.88;18.15;;;;;;;;;;5042087;28;20136;-76
2021/08/08 07:43:12;;;;;;;25.83;18.55;;;;;;;;;;5038708;28;20077;-74
2021/08/08 07:45:40;;;;;;;27.90;18.30;;;;;;;;;;5046930;28;20076;-75
2021/08/08 07:48:08;;;;;;;26.02;18.50;;;;;;;;;;5025000;28;20045;-80
2021/08/08 07:50:35;;;;;;;24.13;18.38;;;;;;;;;;5039532;28;20049;-75
2021/08/08 07:53:02;;;;;;;30.20;19.42;;;;;;;;;;5035166;28;20450;-75
2021/08/08 07:55:29;;;;;;;26.23;17.15;;;;;;;;;;5037079;28;20045;-76
2021/08/08 07:57:56;;;;;;;27.30;18.65;;;;;;;;;;5021751;28;20447;-74
2021/08/08 08:00:23;;;;;;;27.13;18.13;;;;;;;;;;5024840;28;20037;-74
2021/08/08 08:02:53;;;;;;;26.67;18.48;;;;;;;;;;5042531;28;20043;-76
2021/08/08 08:05:20;;;;;;;26.88;18.23;;;;;;;;;;5039308;28;20128;-76
2021/08/08 08:07:48;;;;;;;24.30;18.20;;;;;;;;;;5040313;28;20060;-76
2021/08/08 08:10:15;;;;;;;;;;;;;;;;;;5040183;28;20510;-76
2021/08/08 08:12:42;;;;;;;27.40;18.05;;;;;;;;;;5023128;28;19917;-76
2021/08/08 08:15:10;;;;;;;30.25;19.52;;;;;;;;;;5039584;28;20042;-76
2021/08/08 08:17:37;;;;;;;28.25;19.08;;;;;;;;;;5000475;28;20529;-76
2021/08/08 08:20:05;;;;;;;29.40;19.70;;;;;;;;;;5036989;28;20114;-76
2021/08/08 08:22:32;;;;;;;29.95;18.23;;;;;;;;;;5002301;28;20045;-75
2021/08/08 08:24:59;;;;;;;28.10;19.38;;;;;;;;;;5021135;28;20045;-75
2021/08/08 08:27:26;;;;;;;27.13;18.92;;;;;;;;;;5021610;28;20574;-74
2021/08/08 08:29:53;;;;;;;28.75;18.92;;;;;;;;;;5020337;28;20065;-74
2021/08/08 08:32:20;;;;;;;29.35;19.77;;;;;;;;;;5030795;28;20049;-72
2021/08/08 08:34:47;;;;;;;29.35;19.63;;;;;;;;;;5020303;28;20184;-74
2021/08/08 08:37:14;;;;;;;31.95;19.42;;;;;;;;;;5025438;28;20060;-72
2021/08/08 08:39:41;;;;;;;29.63;18.80;;;;;;;;;;5020541;28;20033;-73
2021/08/08 08:42:10;;;;;;;26.77;18.20;;;;;;;;;;5036212;28;20041;-74
2021/08/08 08:44:38;;;;;;;29.33;18.92;;;;;;;;;;5015268;28;20045;-73
2021/08/08 08:47:05;;;;;;;30.17;19.73;;;;;;;;;;4991311;28;20041;-73
2021/08/08 08:49:36;;;;;;;26.80;18.90;;;;;;;;;;5022359;28;20141;-73
2021/08/08 08:52:07;;;;;;;30.08;21.42;;;;;;;;;;5021774;28;20048;-73
2021/08/08 08:54:35;;;;;;;28.50;20.08;;;;;;;;;;5022057;28;20057;-76
2021/08/08 08:57:04;;;;;;;34.17;20.30;;;;;;;;;;5002780;28;20045;-76
2021/08/08 08:59:32;;;;;;;31.85;19.73;;;;;;;;;;5008325;28;20045;-76
2021/08/08 09:01:59;;;;;;;32.33;20.55;;;;;;;;;;5029331;28;20041;-77
2021/08/08 09:04:26;;;;;;;31.35;19.15;;;;;;;;;;5020561;28;20416;-74
2021/08/08 09:06:56;;;;;;;25.30;18.95;;;;;;;;;;5024691;28;20046;-74
2021/08/08 09:09:24;;;;;;;26.40;17.73;;;;;;;;;;5040694;28;20427;-75
2021/08/08 09:11:51;;;;;;;25.67;18.05;;;;;;;;;;5026137;28;20048;-74
2021/08/08 09:14:23;;;;;;;26.20;17.30;;;;;;;;;;5019467;28;20407;-74
2021/08/08 09:16:56;;;;;;;25.30;17.45;;;;;;;;;;5024299;28;20041;-75
2021/08/08 09:19:28;;;;;;;23.58;16.70;;;;;;;;;;5019763;28;20519;-74
2021/08/08 09:21:56;;;;;;;25.42;16.95;;;;;;;;;;5040268;28;20060;-74
2021/08/08 09:24:29;;;;;;;31.10;17.85;;;;;;;;;;5013297;28;20057;-75
2021/08/08 09:27:06;;;;;;;29.52;18.17;;;;;;;;;;5033859;28;20489;-74
2021/08/08 09:29:42;;;;;;;25.92;16.67;;;;;;;;;;5028345;28;20042;-74
2021/08/08 09:32:10;;;;;;;25.08;15.88;;;;;;;;;;5006915;28;20044;-75
2021/08/08 09:34:42;;;;;;;25.80;18.25;;;;;;;;;;5024600;28;20133;-77
2021/08/08 09:37:35;;;;;;;23.90;16.27;;;;;;;;;;5026517;28;20042;-77
2021/08/08 09:40:12;;;;;;;21.77;15.48;;;;;;;;;;5023320;28;20120;-75
2021/08/08 09:42:46;;;;;;;23.30;16.40;;;;;;;;;;5024607;28;20041;-75
2021/08/08 09:45:15;;;;;;;25.35;16.25;;;;;;;;;;5021773;28;20049;-75
2021/08/08 09:47:51;;;;;;;21.85;15.38;;;;;;;;;;5023189;28;20162;-79
2021/08/08 09:50:21;;;;;;;22.70;15.32;;;;;;;;;;5021848;28;20049;-79
2021/08/08 09:52:57;;;;;;;22.60;15.40;;;;;;;;;;5023578;28;20124;-75
2021/08/08 09:55:31;;;;;;;21.17;15.00;;;;;;;;;;5015489;28;20040;-77
2021/08/08 09:58:21;;;;;;;18.55;14.20;;;;;;;;;;5037970;28;20057;-76
2021/08/08 10:00:58;;;;;;;16.42;12.90;;;;;;;;;;5006737;28;20041;-80
2021/08/08 10:03:25;;;;;;;17.65;13.65;;;;;;;;;;5015928;28;20041;-79
2021/08/08 10:05:56;;;;;;;17.55;12.32;;;;;;;;;;5002708;28;20046;-75
2021/08/08 10:08:25;;;;;;;19.23;13.27;;;;;;;;;;4996970;28;20480;-74
2021/08/08 10:10:54;;;;;;;16.55;12.75;;;;;;;;;;5019526;28;20045;-74
2021/08/08 10:13:30;;;;;;;17.40;13.20;;;;;;;;;;5014897;28;20123;-74
2021/08/08 10:16:09;;;;;;;22.23;14.07;;;;;;;;;;5024005;28;20494;-76
2021/08/08 10:18:43;;;;;;;22.08;13.50;;;;;;;;;;5007513;28;20430;-74
2021/08/08 10:21:13;;;;;;;18.83;14.52;;;;;;;;;;5025298;28;20381;-74
2021/08/08 10:23:40;;;;;;;20.38;13.73;;;;;;;;;;5021725;28;21319;-74
2021/08/08 10:26:08;;;;;;;22.10;14.48;;;;;;;;;;5032862;28;20056;-74
2021/08/08 10:28:36;;;;;;;25.40;15.18;;;;;;;;;;5023349;28;20049;-77
2021/08/08 10:31:05;;;;;;;19.15;13.25;;;;;;;;;;5024629;28;20499;-74
2021/08/08 10:33:46;;;;;;;18.30;11.23;;;;;;;;;;5033421;28;20051;-73
2021/08/08 10:36:34;;;;;;;13.48;10.82;;;;;;;;;;5039865;28;20549;-73
2021/08/08 10:39:15;;;;;;;15.50;11.60;;;;;;;;;;5043494;28;20422;-73
2021/08/08 10:41:56;;;;;;;14.43;10.23;;;;;;;;;;5052559;28;20052;-74
2021/08/08 10:44:25;;;;;;;15.32;9.88;;;;;;;;;;5040007;28;20613;-77
2021/08/08 10:46:54;;;;;;;14.02;10.30;;;;;;;;;;5033338;28;20052;-75
2021/08/08 10:49:29;;;;;;;15.15;10.63;;;;;;;;;;5053676;28;20048;-75
2021/08/08 10:52:04;;;;;;;14.45;9.95;;;;;;;;;;5023303;28;20051;-77
2021/08/08 10:54:52;;;;;;;12.18;8.90;;;;;;;;;;5034982;28;20053;-74
2021/08/08 10:57:20;;;;;;;11.93;8.93;;;;;;;;;;5039330;28;20044;-74
2021/08/08 10:59:49;;;;;;;11.65;8.27;;;;;;;;;;5041134;28;20037;-75
2021/08/08 11:02:26;;;;;;;13.48;9.13;;;;;;;;;;5038232;28;20065;-74
2021/08/08 11:04:53;;;;;;;10.60;8.20;;;;;;;;;;5040773;28;20510;-75
2021/08/08 11:07:27;;;;;;;11.77;8.27;;;;;;;;;;5048419;28;20076;-76
2021/08/08 11:09:55;;;;;;;12.93;8.70;;;;;;;;;;5024694;28;20070;-75
2021/08/08 11:12:37;;;;;;;12.10;8.50;;;;;;;;;;5021449;28;20046;-77
2021/08/08 11:15:06;;;;;;;14.27;9.23;;;;;;;;;;5020242;28;20068;-76
2021/08/08 11:17:33;;;;;;;12.10;8.30;;;;;;;;;;5039950;28;20124;-76
2021/08/08 11:20:01;;;;;;;12.45;8.43;;;;;;;;;;5028975;28;20065;-75
2021/08/08 11:22:29;;;;;;;11.73;8.55;;;;;;;;;;5020427;28;20045;-76
2021/08/08 11:25:07;;;;;;;14.18;8.38;;;;;;;;;;5022558;28;20060;-77
2021/08/08 11:27:40;;;;;;;11.73;8.40;;;;;;;;;;5022448;28;20073;-78
2021/08/08 11:30:13;;;;;;;11.70;7.85;;;;;;;;;;5028743;28;20121;-76
2021/08/08 11:32:41;;;;;;;13.27;8.70;;;;;;;;;;5018814;28;20033;-76
2021/08/08 11:35:27;;;;;;;10.50;7.90;;;;;;;;;;5020415;28;20500;-77
2021/08/08 11:37:54;;;;;;;12.70;8.65;;;;;;;;;;5028720;28;20151;-75
2021/08/08 11:40:27;;;;;;;12.95;9.10;;;;;;;;;;5040852;28;20041;-75
2021/08/08 11:42:58;;;;;;;13.02;9.02;;;;;;;;;;5041936;28;20044;-76
2021/08/08 11:45:46;;;;;;;13.27;9.43;;;;;;;;;;5039894;28;20045;-76
2021/08/08 11:48:17;;;;;;;12.57;8.90;;;;;;;;;;5016654;28;20056;-74
2021/08/08 11:50:54;;;;;;;12.13;9.02;;;;;;;;;;5039339;28;20055;-74
2021/08/08 11:53:33;;;;;;;11.13;8.95;;;;;;;;;;5039738;28;20056;-73
2021/08/08 11:56:30;;;;;;;13.77;10.20;;;;;;;;;;5036643;28;20040;-74
2021/08/08 11:58:59;;;;;;;12.27;9.68;;;;;;;;;;5033612;28;20049;-74
2021/08/08 12:01:27;;;;;;;16.02;9.82;;;;;;;;;;5039821;28;20187;-74
2021/08/08 12:04:06;;;;;;;16.88;9.82;;;;;;;;;;5039878;28;20042;-74
2021/08/08 12:06:33;;;;;;;12.00;9.05;;;;;;;;;;5038190;28;20086;-75
2021/08/08 12:09:00;;;;;;;15.13;10.73;;;;;;;;;;5014564;28;20056;-75
2021/08/08 12:11:28;;;;;;;14.05;9.63;;;;;;;;;;4994389;28;20048;-74
2021/08/08 12:14:01;;;;;;;10.68;8.38;;;;;;;;;;5032319;28;20048;-73
2021/08/08 12:16:33;;;;;;;10.13;8.38;;;;;;;;;;5038961;28;20041;-73
2021/08/08 12:19:01;;;;;;;15.05;8.32;;;;;;;;;;5038176;28;20090;-74
2021/08/08 12:21:37;;;;;;;10.45;8.00;;;;;;;;;;5041312;28;20093;-75
2021/08/08 12:24:12;;;;;;;13.05;9.20;;;;;;;;;;5037117;28;20036;-74
2021/08/08 12:26:41;;;;;;;11.38;8.73;;;;;;;;;;4973239;28;20045;-74
2021/08/08 12:29:09;;;;;;;10.40;8.02;;;;;;;;;;5028504;28;20049;-75
2021/08/08 12:31:41;;;;;;;13.35;8.45;;;;;;;;;;5024520;28;20530;-74
2021/08/08 12:34:09;;;;;;;13.02;8.02;;;;;;;;;;5038559;28;20052;-74
2021/08/08 12:36:42;;;;;;;10.57;7.72;;;;;;;;;;5037995;28;20040;-74
2021/08/08 12:39:10;;;;;;;10.48;7.28;;;;;;;;;;5039494;28;20052;-74
2021/08/08 12:41:40;;;;;;;12.32;8.15;;;;;;;;;;5036921;28;20432;-73
2021/08/08 12:44:10;;;;;;;10.52;8.27;;;;;;;;;;5037622;28;20081;-75
2021/08/08 12:46:42;;;;;;;13.70;7.40;;;;;;;;;;5038512;28;20048;-74
2021/08/08 12:49:11;;;;;;;10.27;7.32;;;;;;;;;;5040920;28;20345;-73
2021/08/08 12:51:41;;;;;;;12.52;7.40;;;;;;;;;;5036670;28;20102;-73
2021/08/08 12:54:09;;;;;;;13.02;7.13;;;;;;;;;;5030412;28;20044;-74
2021/08/08 12:56:37;;;;;;;10.20;7.22;;;;;;;;;;5034980;28;20037;-72
2021/08/08 12:59:05;;;;;;;9.80;6.97;;;;;;;;;;5012970;28;21105;-73
2021/08/08 13:01:33;;;;;;;11.93;6.57;;;;;;;;;;5014717;28;20074;-74
2021/08/08 13:04:00;;;;;;;12.77;7.25;;;;;;;;;;5029152;28;20045;-74
2021/08/08 13:06:27;;;;;;;9.70;6.32;;;;;;;;;;5039447;28;20116;-73
2021/08/08 13:08:54;;;;;;;11.38;7.13;;;;;;;;;;5040633;28;20329;-73
2021/08/08 13:11:21;;;;;;;11.07;6.93;;;;;;;;;;5040090;28;20049;-73
2021/08/08 13:13:48;;;;;;;10.27;7.65;;;;;;;;;;5038893;28;20404;-74
2021/08/08 13:16:15;;;;;;;13.88;7.00;;;;;;;;;;5039369;28;20045;-74
2021/08/08 13:18:42;;;;;;;11.05;7.70;;;;;;;;;;5040328;28;20041;-72
2021/08/08 13:21:13;;;;;;;9.35;6.90;;;;;;;;;;5040442;28;20040;-72
2021/08/08 13:23:41;;;;;;;15.00;8.43;;;;;;;;;;5038752;28;20037;-75
2021/08/08 13:26:09;;;;;;;;;;;;;;;;;;5028504;28;20056;-75
2021/08/08 13:28:36;;;;;;;13.45;7.72;;;;;;;;;;5037247;28;20058;-72
2021/08/08 13:31:05;;;;;;;11.25;8.30;;;;;;;;;;5039152;28;20045;-74
2021/08/08 13:33:33;;;;;;;13.57;8.32;;;;;;;;;;5023582;28;20495;-73
2021/08/08 13:36:00;;;;;;;12.80;7.97;;;;;;;;;;5047233;28;20063;-73
2021/08/08 13:38:27;;;;;;;10.77;7.93;;;;;;;;;;5022225;28;20041;-78
2021/08/08 13:40:54;;;;;;;11.80;7.75;;;;;;;;;;5039275;28;20060;-75
2021/08/08 13:43:21;;;;;;;11.70;8.07;;;;;;;;;;5037059;28;20187;-75
2021/08/08 13:45:50;;;;;;;9.70;7.55;;;;;;;;;;5040120;28;20079;-76
2021/08/08 13:48:17;;;;;;;12.13;7.75;;;;;;;;;;5048228;28;20083;-72
2021/08/08 13:50:44;;;;;;;12.45;7.18;;;;;;;;;;5037781;28;20045;-73
2021/08/08 13:53:11;;;;;;;11.20;7.32;;;;;;;;;;5042780;28;20036;-74
2021/08/08 13:55:39;;;;;;;10.75;7.20;;;;;;;;;;5043772;28;20082;-74
2021/08/08 13:58:06;;;;;;;11.30;7.00;;;;;;;;;;5043210;28;20052;-73
2021/08/08 14:00:33;;;;;;;12.52;7.35;;;;;;;;;;5023931;28;20053;-74
2021/08/08 14:03:00;;;;;;;11.13;7.53;;;;;;;;;;5041378;28;20548;-73
2021/08/08 14:05:27;;;;;;;10.70;6.80;;;;;;;;;;5039781;28;20119;-72
2021/08/08 14:07:54;;;;;;;10.40;6.38;;;;;;;;;;5024179;28;20487;-73
2021/08/08 14:10:22;;;;;;;10.30;6.38;;;;;;;;;;5044103;28;20513;-73
2021/08/08 14:12:49;;;;;;;10.02;6.78;;;;;;;;;;5042101;28;20106;-76
2021/08/08 14:15:18;;;;;;;10.50;6.28;;;;;;;;;;5044769;28;20511;-73
2021/08/08 14:17:45;;;;;;;8.68;6.15;;;;;;;;;;5042464;28;20041;-74
2021/08/08 14:20:14;;;;;;;8.95;6.03;;;;;;;;;;5043747;28;20110;-74
2021/08/08 14:22:41;;;;;;;10.95;6.50;;;;;;;;;;5024110;28;20048;-73
2021/08/08 14:25:09;;;;;;;8.98;6.40;;;;;;;;;;5040939;28;20403;-74
2021/08/08 14:27:36;;;;;;;11.52;7.10;;;;;;;;;;5017554;28;20462;-75
2021/08/08 14:30:04;;;;;;;12.25;7.25;;;;;;;;;;5039253;28;20192;-78
2021/08/08 14:32:31;;;;;;;11.70;7.85;;;;;;;;;;5024598;28;20051;-74
2021/08/08 14:34:58;;;;;;;12.63;7.85;;;;;;;;;;5041631;28;20045;-75